createdAt,value
2023-05-05T00:00:38.766Z,100369.58
2023-05-05T00:03:09.382Z,100366.16
2023-05-05T00:05:39.846Z,100367.54
2023-05-05T00:08:10.470Z,100365.44
2023-05-05T00:10:41.612Z,100366.83
2023-05-05T00:13:10.698Z,100365.65
2023-05-05T00:15:42.771Z,100362.56
2023-05-05T00:18:14.466Z,100364.55
2023-05-05T00:20:44.863Z,100366.61
2023-05-05T00:23:15.908Z,100368.95
2023-05-05T00:25:55.114Z,100370.55
2023-05-05T00:28:25.541Z,100371.29
2023-05-05T00:31:17.808Z,100366.64
2023-05-05T00:33:48.528Z,100363.17
2023-05-05T00:36:21.565Z,100362.58
2023-05-05T00:38:52.126Z,100359.82
2023-05-05T00:41:22.506Z,100366.93
2023-05-05T00:43:55.785Z,100366.61
2023-05-05T00:46:27.921Z,100365.72
2023-05-05T00:48:59.809Z,100368.36
2023-05-05T00:51:32.047Z,100371.56
2023-05-05T00:54:03.176Z,100372.84
2023-05-05T00:56:34.330Z,100368.39
2023-05-05T00:59:07.734Z,100362.85
2023-05-05T01:01:38.309Z,100363.20
2023-05-05T01:04:09.329Z,100367.65
2023-05-05T01:06:49.593Z,100368.40
2023-05-05T01:09:32.637Z,100366.05
2023-05-05T01:12:16.807Z,100362.80
2023-05-05T01:14:54.502Z,100357.05
2023-05-05T01:17:34.716Z,100344.85
2023-05-05T01:20:18.028Z,100344.04
2023-05-05T01:22:54.895Z,100339.30
2023-05-05T01:25:47.202Z,100333.08
2023-05-05T01:28:39.296Z,100328.27
2023-05-05T01:31:37.098Z,100331.80
2023-05-05T01:34:11.147Z,100328.08
2023-05-05T01:36:57.937Z,100327.84
2023-05-05T01:39:32.574Z,100335.09
2023-05-05T01:42:09.294Z,100343.77
2023-05-05T01:44:42.861Z,100345.46
2023-05-05T01:47:16.140Z,100351.98
2023-05-05T01:49:58.408Z,100351.88
2023-05-05T01:52:32.680Z,100355.23
2023-05-05T01:55:05.572Z,100363.81
2023-05-05T01:57:40.705Z,100367.85
2023-05-05T02:00:13.793Z,100368.48
2023-05-05T02:02:51.693Z,100372.08
2023-05-05T02:05:26.598Z,100381.05
2023-05-05T02:08:00.581Z,100385.88
2023-05-05T02:10:31.930Z,100390.04
2023-05-05T02:13:15.526Z,100384.45
2023-05-05T02:16:09.144Z,100385.48
2023-05-05T02:18:43.577Z,100389.58
2023-05-05T02:21:17.715Z,100389.54
2023-05-05T02:23:51.740Z,100395.15
2023-05-05T02:26:29.188Z,100397.55
2023-05-05T02:29:07.374Z,100403.77
2023-05-05T02:31:47.666Z,100409.23
2023-05-05T02:34:26.857Z,100414.15
2023-05-05T02:37:04.330Z,100410.95
2023-05-05T02:39:43.706Z,100415.34
2023-05-05T02:42:21.190Z,100411.80
2023-05-05T02:44:58.074Z,100409.54
2023-05-05T02:47:37.266Z,100402.94
2023-05-05T02:50:12.465Z,100405.93
2023-05-05T02:52:57.234Z,100403.13
2023-05-05T02:55:27.074Z,100403.75
2023-05-05T02:58:06.744Z,100396.04
2023-05-05T03:00:48.516Z,100391.66
2023-05-05T03:03:31.789Z,100392.48
2023-05-05T03:06:17.163Z,100395.33
2023-05-05T03:09:13.165Z,100392.99
2023-05-05T03:11:51.903Z,100395.82
2023-05-05T03:14:28.233Z,100395.75
2023-05-05T03:17:21.877Z,100398.81
2023-05-05T03:19:53.274Z,100403.98
2023-05-05T03:22:28.235Z,100404.50
2023-05-05T03:25:00.821Z,100403.11
2023-05-05T03:27:32.333Z,100401.17
2023-05-05T03:30:05.939Z,100408.29
2023-05-05T03:32:48.591Z,100404.88
2023-05-05T03:35:30.546Z,100401.31
2023-05-05T03:38:01.586Z,100404.67
2023-05-05T03:40:43.466Z,100409.59
2023-05-05T03:43:23.307Z,100408.48
2023-05-05T03:46:07.111Z,100405.89
2023-05-05T03:48:41.737Z,100407.38
2023-05-05T03:51:13.272Z,100412.91
2023-05-05T03:53:54.116Z,100431.27
2023-05-05T03:56:25.849Z,100433.58
2023-05-05T03:58:56.536Z,100440.32
2023-05-05T04:01:26.544Z,100435.12
2023-05-05T04:04:00.816Z,100438.64
2023-05-05T04:06:36.698Z,100436.25
2023-05-05T04:09:07.382Z,100438.54
2023-05-05T04:11:39.427Z,100441.37
2023-05-05T04:14:10.816Z,100442.29
2023-05-05T04:16:43.559Z,100440.02
2023-05-05T04:19:25.285Z,100438.92
2023-05-05T04:22:05.859Z,100441.98
2023-05-05T04:24:37.238Z,100436.23
2023-05-05T04:27:07.133Z,100433.87
2023-05-05T04:29:48.830Z,100432.35
2023-05-05T04:32:22.391Z,100427.67
2023-05-05T04:35:02.101Z,100424.36
2023-05-05T04:37:33.084Z,100431.09
2023-05-05T04:40:03.975Z,100446.45
2023-05-05T04:42:54.643Z,100457.75
2023-05-05T04:45:25.446Z,100458.95
2023-05-05T04:48:16.039Z,100459.52
2023-05-05T04:50:49.237Z,100462.88
2023-05-05T04:53:39.816Z,100469.36
2023-05-05T04:56:09.818Z,100474.49
2023-05-05T04:58:40.399Z,100476.11
2023-05-05T05:01:23.776Z,100475.92
2023-05-05T05:03:54.548Z,100473.36
2023-05-05T05:06:25.142Z,100469.19
2023-05-05T05:09:06.091Z,100469.53
2023-05-05T05:11:39.597Z,100467.95
2023-05-05T05:14:12.646Z,100468.47
2023-05-05T05:16:43.373Z,100475.51
2023-05-05T05:19:34.158Z,100477.66
2023-05-05T05:22:07.307Z,100477.64
2023-05-05T05:24:39.924Z,100481.34
2023-05-05T05:27:11.532Z,100487.45
2023-05-05T05:29:47.466Z,100487.44
2023-05-05T05:32:18.799Z,100488.30
2023-05-05T05:34:52.116Z,100481.17
2023-05-05T05:37:22.819Z,100480.66
2023-05-05T05:40:14.567Z,100487.30
2023-05-05T05:42:55.195Z,100492.65
2023-05-05T05:45:27.535Z,100490.86
2023-05-05T05:47:58.283Z,100490.07
2023-05-05T05:50:29.299Z,100494.52
2023-05-05T05:53:00.148Z,100497.53
2023-05-05T05:55:31.287Z,100499.97
2023-05-05T05:58:02.091Z,100496.80
2023-05-05T06:00:32.646Z,100498.23
2023-05-05T06:03:06.242Z,100500.85
2023-05-05T06:05:39.193Z,100503.41
2023-05-05T06:08:12.801Z,100503.46
2023-05-05T06:10:48.271Z,100510.35
2023-05-05T06:13:20.557Z,100508.61
2023-05-05T06:15:53.343Z,100509.89
2023-05-05T06:18:24.006Z,100510.92
2023-05-05T06:20:55.313Z,100510.88
2023-05-05T06:23:29.136Z,100508.17
2023-05-05T06:26:05.139Z,100509.95
2023-05-05T06:28:35.512Z,100508.77
2023-05-05T06:31:06.326Z,100510.27
2023-05-05T06:33:36.999Z,100512.13
2023-05-05T06:36:08.220Z,100510.27
2023-05-05T06:38:38.634Z,100507.77
2023-05-05T06:41:09.124Z,100510.83
2023-05-05T06:43:39.575Z,100507.23
2023-05-05T06:46:12.552Z,100508.67
2023-05-05T06:48:43.020Z,100509.02
2023-05-05T06:51:13.458Z,100509.73
2023-05-05T06:53:43.903Z,100505.58
2023-05-05T06:56:14.276Z,100505.86
2023-05-05T06:58:44.777Z,100509.23
2023-05-05T07:01:15.299Z,100511.40
2023-05-05T07:03:45.876Z,100511.91
2023-05-05T07:06:16.477Z,100514.55
2023-05-05T07:08:47.322Z,100517.79
2023-05-05T07:11:17.743Z,100521.48
2023-05-05T07:13:49.312Z,100518.52
2023-05-05T07:16:19.729Z,100516.29
2023-05-05T07:18:50.195Z,100517.53
2023-05-05T07:21:20.516Z,100519.58
2023-05-05T07:23:50.841Z,100517.73
2023-05-05T07:26:21.386Z,100519.52
2023-05-05T07:28:52.135Z,100523.43
2023-05-05T07:31:23.294Z,100524.37
2023-05-05T07:33:52.415Z,100524.91
2023-05-05T07:36:23.098Z,100527.34
2023-05-05T07:38:53.626Z,100523.36
2023-05-05T07:41:24.023Z,100522.45
2023-05-05T07:43:54.626Z,100516.80
2023-05-05T07:46:25.152Z,100517.98
2023-05-05T07:48:55.568Z,100518.04
2023-05-05T07:51:26.518Z,100518.33
2023-05-05T07:53:57.707Z,100518.94
2023-05-05T07:56:28.240Z,100518.24
2023-05-05T07:58:58.741Z,100518.08
2023-05-05T08:01:29.103Z,100518.88
2023-05-05T08:03:59.776Z,100519.83
2023-05-05T08:06:31.690Z,100516.15
2023-05-05T08:09:03.418Z,100510.45
2023-05-05T08:11:34.015Z,100509.11
2023-05-05T08:14:04.512Z,100506.80
2023-05-05T08:16:34.984Z,100513.09
2023-05-05T08:19:14.610Z,100511.14
2023-05-05T08:21:51.796Z,100509.66
2023-05-05T08:24:22.168Z,100508.99
2023-05-05T08:26:52.535Z,100507.52
2023-05-05T08:29:22.952Z,100505.87
2023-05-05T08:31:53.378Z,100505.29
2023-05-05T08:34:23.902Z,100502.04
2023-05-05T08:36:54.355Z,100503.02
2023-05-05T08:39:24.897Z,100496.96
2023-05-05T08:41:55.268Z,100494.85
2023-05-05T08:44:26.829Z,100496.88
2023-05-05T08:46:59.251Z,100496.77
2023-05-05T08:49:41.033Z,100496.14
2023-05-05T08:52:14.805Z,100498.27
2023-05-05T08:54:52.423Z,100496.46
2023-05-05T08:57:31.024Z,100494.77
2023-05-05T09:00:03.204Z,100493.45
2023-05-05T09:02:34.168Z,100492.58
2023-05-05T09:05:05.216Z,100492.75
2023-05-05T09:07:37.390Z,100489.69
2023-05-05T09:10:11.515Z,100488.29
2023-05-05T09:12:42.650Z,100492.23
2023-05-05T09:15:16.389Z,100492.16
2023-05-05T09:17:46.772Z,100491.49
2023-05-05T09:20:17.462Z,100488.55
2023-05-05T09:22:48.883Z,100485.79
2023-05-05T09:25:20.190Z,100483.04
2023-05-05T09:27:51.948Z,100477.03
2023-05-05T09:30:27.563Z,100474.79
2023-05-05T09:32:58.447Z,100472.38
2023-05-05T09:35:29.549Z,100470.17
2023-05-05T09:37:59.277Z,100460.94
2023-05-05T09:40:45.256Z,100457.05
2023-05-05T09:43:16.267Z,100455.15
2023-05-05T09:45:45.457Z,100458.09
2023-05-05T09:48:29.537Z,100456.67
2023-05-05T09:51:00.809Z,100459.90
2023-05-05T09:53:38.818Z,100457.08
2023-05-05T09:56:11.013Z,100452.34
2023-05-05T09:58:41.758Z,100447.44
2023-05-05T10:01:24.473Z,100446.19
2023-05-05T10:03:54.870Z,100448.12
2023-05-05T10:06:42.683Z,100445.55
2023-05-05T10:09:13.187Z,100451.26
2023-05-05T10:11:46.131Z,100446.43
2023-05-05T10:14:17.983Z,100447.41
2023-05-05T10:16:50.928Z,100440.48
2023-05-05T10:19:22.885Z,100437.38
2023-05-05T10:21:54.512Z,100443.98
2023-05-05T10:24:31.658Z,100435.77
2023-05-05T10:27:08.053Z,100434.54
2023-05-05T10:29:46.832Z,100431.77
2023-05-05T10:32:46.561Z,100426.25
2023-05-05T10:35:22.190Z,100432.61
2023-05-05T10:37:53.433Z,100424.43
2023-05-05T10:40:24.591Z,100422.96
2023-05-05T10:42:56.951Z,100424.11
2023-05-05T10:45:27.826Z,100419.09
2023-05-05T10:48:05.281Z,100418.73
2023-05-05T10:50:40.384Z,100414.63
2023-05-05T10:53:18.208Z,100412.39
2023-05-05T10:55:54.280Z,100411.77
2023-05-05T10:58:51.246Z,100404.86
2023-05-05T11:01:34.670Z,100407.55
2023-05-05T11:04:22.691Z,100407.83
2023-05-05T11:07:26.025Z,100407.59
2023-05-05T11:10:03.663Z,100403.98
2023-05-05T11:12:55.123Z,100405.40
2023-05-05T11:15:38.794Z,100401.58
2023-05-05T11:18:28.734Z,100402.98
2023-05-05T11:21:19.379Z,100398.68
2023-05-05T11:23:53.719Z,100397.21
2023-05-05T11:26:52.932Z,100390.99
2023-05-05T11:29:23.389Z,100387.56
2023-05-05T11:32:13.801Z,100381.92
2023-05-05T11:34:52.442Z,100380.41
2023-05-05T11:37:25.616Z,100378.23
2023-05-05T11:40:08.667Z,100378.41
2023-05-05T11:42:39.559Z,100380.38
2023-05-05T11:45:21.709Z,100373.14
2023-05-05T11:47:52.095Z,100371.56
2023-05-05T11:50:24.701Z,100364.12
2023-05-05T11:52:55.258Z,100369.16
2023-05-05T11:55:25.957Z,100365.23
2023-05-05T11:57:56.392Z,100360.42
2023-05-05T12:00:36.646Z,100355.59
2023-05-05T12:03:08.769Z,100359.23
2023-05-05T12:05:39.382Z,100347.52
2023-05-05T12:08:10.524Z,100346.48
2023-05-05T12:10:41.063Z,100346.23
2023-05-05T12:13:21.462Z,100343.54
2023-05-05T12:15:52.202Z,100336.52
2023-05-05T12:18:23.203Z,100338.43
2023-05-05T12:20:53.840Z,100337.21
2023-05-05T12:23:23.077Z,100334.96
2023-05-05T12:25:53.613Z,100330.41
2023-05-05T12:28:22.919Z,100323.06
2023-05-05T12:30:59.859Z,100319.20
2023-05-05T12:33:30.411Z,100319.02
2023-05-05T12:35:59.446Z,100323.70
2023-05-05T12:38:30.030Z,100320.98
2023-05-05T12:40:59.222Z,100322.48
2023-05-05T12:43:31.747Z,100321.34
2023-05-05T12:46:10.161Z,100323.48
2023-05-05T12:48:46.411Z,100321.98
2023-05-05T12:51:20.997Z,100319.45
2023-05-05T12:54:02.967Z,100313.64
2023-05-05T12:56:41.527Z,100307.34
2023-05-05T12:59:13.355Z,100310.73
2023-05-05T13:01:53.359Z,100304.21
2023-05-05T13:04:25.710Z,100298.52
2023-05-05T13:07:13.015Z,100289.55
2023-05-05T13:09:43.686Z,100288.31
2023-05-05T13:12:12.582Z,100284.52
2023-05-05T13:14:43.859Z,100279.19
2023-05-05T13:17:15.318Z,100278.87
2023-05-05T13:19:47.087Z,100272.94
2023-05-05T13:22:17.917Z,100274.03
2023-05-05T13:24:52.261Z,100272.95
2023-05-05T13:27:23.761Z,100272.00
2023-05-05T13:29:54.454Z,100267.86
2023-05-05T13:32:23.737Z,100264.27
2023-05-05T13:34:54.362Z,100264.04
2023-05-05T13:37:23.416Z,100255.80
2023-05-05T13:39:57.167Z,100256.16
2023-05-05T13:42:27.744Z,100258.11
2023-05-05T13:45:01.393Z,100254.29
2023-05-05T13:47:31.809Z,100255.66
2023-05-05T13:50:02.407Z,100254.88
2023-05-05T13:52:33.181Z,100252.45
2023-05-05T13:55:04.505Z,100252.70
2023-05-05T13:57:35.396Z,100251.88
2023-05-05T14:00:07.754Z,100249.73
2023-05-05T14:02:38.161Z,100251.20
2023-05-05T14:05:10.969Z,100250.54
2023-05-05T14:07:42.401Z,100247.17
2023-05-05T14:10:13.693Z,100241.27
2023-05-05T14:12:44.449Z,100236.38
2023-05-05T14:15:13.703Z,100241.86
2023-05-05T14:17:44.259Z,100237.04
2023-05-05T14:20:16.082Z,100235.00
2023-05-05T14:22:48.733Z,100231.68
2023-05-05T14:25:20.046Z,100229.70
2023-05-05T14:27:51.034Z,100228.83
2023-05-05T14:30:21.586Z,100227.77
2023-05-05T14:32:52.287Z,100224.91
2023-05-05T14:35:21.317Z,100223.52
2023-05-05T14:37:51.780Z,100223.89
2023-05-05T14:40:22.466Z,100225.15
2023-05-05T14:42:53.172Z,100227.57
2023-05-05T14:45:23.754Z,100225.89
2023-05-05T14:47:54.529Z,100222.84
2023-05-05T14:50:23.567Z,100227.30
2023-05-05T14:52:53.991Z,100227.05
2023-05-05T14:55:25.214Z,100225.48
2023-05-05T14:57:55.847Z,100225.98
2023-05-05T15:00:26.904Z,100221.52
2023-05-05T15:02:57.888Z,100222.45
2023-05-05T15:05:28.548Z,100230.11
2023-05-05T15:07:59.060Z,100226.34
2023-05-05T15:10:30.039Z,100224.61
2023-05-05T15:12:59.239Z,100216.94
2023-05-05T15:15:29.903Z,100216.98
2023-05-05T15:18:00.709Z,100215.95
2023-05-05T15:20:31.760Z,100217.92
2023-05-05T15:23:01.433Z,100217.88
2023-05-05T15:25:32.217Z,100221.98
2023-05-05T15:28:02.925Z,100229.16
2023-05-05T15:30:33.608Z,100227.94
2023-05-05T15:33:04.645Z,100237.44
2023-05-05T15:35:36.330Z,100248.12
2023-05-05T15:38:06.803Z,100276.86
2023-05-05T15:40:37.720Z,100281.58
2023-05-05T15:43:08.659Z,100292.72
2023-05-05T15:45:41.106Z,100298.09
2023-05-05T15:48:11.537Z,100309.45
2023-05-05T15:50:42.117Z,100314.53
2023-05-05T15:53:12.506Z,100322.52
2023-05-05T15:55:43.118Z,100321.04
2023-05-05T15:58:13.728Z,100323.23
2023-05-05T16:00:44.165Z,100322.07
2023-05-05T16:03:14.781Z,100325.54
2023-05-05T16:05:45.540Z,100328.48
2023-05-05T16:08:15.977Z,100329.14
2023-05-05T16:10:46.398Z,100333.30
2023-05-05T16:13:17.032Z,100335.08
2023-05-05T16:15:47.570Z,100335.20
2023-05-05T16:18:17.956Z,100345.76
2023-05-05T16:20:48.415Z,100351.70
2023-05-05T16:23:18.788Z,100367.52
2023-05-05T16:25:49.107Z,100382.44
2023-05-05T16:28:19.744Z,100395.16
2023-05-05T16:30:50.327Z,100403.38
2023-05-05T16:33:20.697Z,100406.58
2023-05-05T16:35:51.158Z,100404.35
2023-05-05T16:38:21.614Z,100402.48
2023-05-05T16:40:52.280Z,100396.35
2023-05-05T16:43:22.746Z,100396.14
2023-05-05T16:45:53.295Z,100390.56
2023-05-05T16:48:23.691Z,100386.83
2023-05-05T16:50:56.384Z,100383.50
2023-05-05T16:53:26.978Z,100378.02
2023-05-05T16:55:57.541Z,100369.03
2023-05-05T16:58:28.221Z,100369.07
2023-05-05T17:01:02.775Z,100370.89
2023-05-05T17:03:33.302Z,100376.02
2023-05-05T17:06:03.776Z,100379.02
2023-05-05T17:08:34.460Z,100372.71
2023-05-05T17:11:04.906Z,100374.11
2023-05-05T17:13:35.728Z,100369.08
2023-05-05T17:16:06.530Z,100364.35
2023-05-05T17:18:37.155Z,100360.86
2023-05-05T17:21:08.292Z,100364.63
2023-05-05T17:23:38.817Z,100363.83
2023-05-05T17:26:09.277Z,100363.67
2023-05-05T17:28:39.631Z,100366.48
2023-05-05T17:31:10.272Z,100358.40
2023-05-05T17:33:40.892Z,100368.07
2023-05-05T17:36:12.088Z,100369.45
2023-05-05T17:38:42.451Z,100372.29
2023-05-05T17:41:12.887Z,100375.83
2023-05-05T17:43:43.372Z,100375.34
2023-05-05T17:46:14.043Z,100377.70
2023-05-05T17:48:47.318Z,100381.35
2023-05-05T17:51:17.734Z,100379.72
2023-05-05T17:53:48.190Z,100380.98
2023-05-05T17:56:18.820Z,100380.21
2023-05-05T17:58:49.371Z,100380.08
2023-05-05T18:01:27.243Z,100379.54
2023-05-05T18:03:57.890Z,100381.80
2023-05-05T18:06:33.971Z,100379.08
2023-05-05T18:09:04.640Z,100378.48
2023-05-05T18:11:35.369Z,100382.23
2023-05-05T18:14:05.708Z,100383.01
2023-05-05T18:16:38.559Z,100385.16
2023-05-05T18:19:09.146Z,100385.16
2023-05-05T18:21:39.524Z,100383.48
2023-05-05T18:24:19.390Z,100386.44
2023-05-05T18:26:52.556Z,100391.34
2023-05-05T18:29:24.157Z,100394.73
2023-05-05T18:31:54.913Z,100398.42
2023-05-05T18:34:26.219Z,100397.56
2023-05-05T18:36:57.063Z,100399.65
2023-05-05T18:39:28.174Z,100399.23
2023-05-05T18:41:58.709Z,100395.98
2023-05-05T18:44:29.480Z,100393.64
2023-05-05T18:47:00.225Z,100395.36
2023-05-05T18:49:31.679Z,100401.08
2023-05-05T18:52:02.190Z,100402.20
2023-05-05T18:54:32.638Z,100404.73
2023-05-05T18:57:03.657Z,100405.06
2023-05-05T18:59:36.639Z,100408.27
2023-05-05T19:02:07.964Z,100412.53
2023-05-05T19:04:38.188Z,100419.78
2023-05-05T19:07:09.180Z,100424.52
2023-05-05T19:09:39.742Z,100427.98
2023-05-05T19:12:10.349Z,100430.36
2023-05-05T19:14:41.098Z,100435.39
2023-05-05T19:17:11.649Z,100440.40
2023-05-05T19:19:42.089Z,100444.18
2023-05-05T19:22:14.928Z,100447.84
2023-05-05T19:24:45.515Z,100451.45
2023-05-05T19:27:17.081Z,100452.36
2023-05-05T19:29:52.003Z,100461.54
2023-05-05T19:32:23.074Z,100463.51
2023-05-05T19:35:03.781Z,100464.02
2023-05-05T19:37:34.135Z,100462.25
2023-05-05T19:40:05.395Z,100465.42
2023-05-05T19:42:34.310Z,100468.59
2023-05-05T19:45:05.283Z,100471.39
2023-05-05T19:47:36.340Z,100470.38
2023-05-05T19:50:15.978Z,100469.64
2023-05-05T19:52:46.528Z,100468.73
2023-05-05T19:55:16.934Z,100468.36
2023-05-05T19:57:47.426Z,100468.20
2023-05-05T20:00:19.531Z,100466.42
2023-05-05T20:02:50.221Z,100471.42
2023-05-05T20:05:20.825Z,100473.21
2023-05-05T20:07:52.831Z,100475.48
2023-05-05T20:10:27.122Z,100473.30
2023-05-05T20:12:57.657Z,100473.56
2023-05-05T20:15:28.385Z,100472.72
2023-05-05T20:17:58.796Z,100474.90
2023-05-05T20:20:29.247Z,100474.85
2023-05-05T20:22:59.757Z,100475.05
2023-05-05T20:25:30.627Z,100470.55
2023-05-05T20:28:01.201Z,100468.95
2023-05-05T20:30:31.667Z,100465.88
2023-05-05T20:33:02.081Z,100467.14
2023-05-05T20:35:32.726Z,100470.55
2023-05-05T20:38:03.647Z,100474.86
2023-05-05T20:40:34.240Z,100471.17
2023-05-05T20:43:04.846Z,100472.81
2023-05-05T20:45:37.907Z,100475.56
2023-05-05T20:48:11.145Z,100475.81
2023-05-05T20:50:42.474Z,100478.09
2023-05-05T20:53:13.880Z,100475.95
2023-05-05T20:55:44.268Z,100472.84
2023-05-05T20:58:14.957Z,100479.55
2023-05-05T21:00:45.644Z,100481.86
2023-05-05T21:03:16.296Z,100488.59
2023-05-05T21:05:46.715Z,100492.42
2023-05-05T21:08:17.259Z,100495.08
2023-05-05T21:10:47.871Z,100496.47
2023-05-05T21:13:18.461Z,100492.17
2023-05-05T21:15:52.055Z,100494.13
2023-05-05T21:18:22.488Z,100493.20
2023-05-05T21:20:52.977Z,100488.94
2023-05-05T21:23:23.402Z,100486.95
2023-05-05T21:25:54.110Z,100490.94
2023-05-05T21:28:24.699Z,100484.39
2023-05-05T21:31:19.894Z,100485.19
2023-05-05T21:33:46.342Z,100489.42
2023-05-05T21:36:17.750Z,100480.99
2023-05-05T21:38:48.165Z,100481.02
2023-05-05T21:41:18.726Z,100485.70
2023-05-05T21:43:49.280Z,100482.82
2023-05-05T21:46:20.489Z,100481.98
2023-05-05T21:48:51.024Z,100481.66
2023-05-05T21:51:22.528Z,100481.65
2023-05-05T21:53:52.959Z,100486.79
2023-05-05T21:56:23.545Z,100483.39
2023-05-05T21:58:54.028Z,100490.55
2023-05-05T22:01:24.414Z,100495.08
2023-05-05T22:03:55.278Z,100495.73
2023-05-05T22:06:25.952Z,100494.55
2023-05-05T22:08:57.474Z,100491.11
2023-05-05T22:11:28.217Z,100493.70
2023-05-05T22:14:01.819Z,100491.42
2023-05-05T22:16:34.824Z,100495.85
2023-05-05T22:19:05.415Z,100491.92
2023-05-05T22:21:35.844Z,100497.80
2023-05-05T22:24:08.059Z,100496.03
2023-05-05T22:26:42.918Z,100495.97
2023-05-05T22:29:13.592Z,100496.66
2023-05-05T22:31:44.405Z,100500.92
2023-05-05T22:34:18.829Z,100502.51
2023-05-05T22:36:49.506Z,100504.62
2023-05-05T22:39:23.834Z,100506.65
2023-05-05T22:41:54.238Z,100507.56
2023-05-05T22:44:27.351Z,100502.38
2023-05-05T22:46:57.929Z,100508.39
2023-05-05T22:49:28.745Z,100502.46
2023-05-05T22:51:59.337Z,100506.87
2023-05-05T22:54:29.876Z,100504.17
2023-05-05T22:57:00.523Z,100501.60
2023-05-05T22:59:31.139Z,100499.88
2023-05-05T23:02:04.722Z,100503.61
2023-05-05T23:04:35.313Z,100507.11
2023-05-05T23:07:05.898Z,100508.98
2023-05-05T23:09:36.323Z,100505.70
2023-05-05T23:12:07.001Z,100504.02
2023-05-05T23:14:37.519Z,100505.37
2023-05-05T23:17:08.352Z,100503.34
2023-05-05T23:19:38.969Z,100503.56
2023-05-05T23:22:23.213Z,100507.05
2023-05-05T23:24:55.963Z,100507.77
2023-05-05T23:27:26.511Z,100511.20
2023-05-05T23:29:57.120Z,100510.23
2023-05-05T23:32:28.240Z,100511.36
2023-05-05T23:34:58.936Z,100509.77
2023-05-05T23:37:32.544Z,100509.09
2023-05-05T23:40:02.999Z,100504.03
2023-05-05T23:42:33.462Z,100505.70
2023-05-05T23:45:04.208Z,100505.98
2023-05-05T23:47:34.685Z,100502.16
2023-05-05T23:50:05.405Z,100503.84
2023-05-05T23:52:38.141Z,100502.97
2023-05-05T23:55:10.558Z,100505.58
2023-05-05T23:57:41.260Z,100505.16
